sensor_id;sensor_type;location;lat;lon;timestamp;P1;durP1;ratioP1;P2;durP2;ratioP2
45274;SDS011;31019;43.780;25.948;2023-05-19T00:02:15;99.50;;;89.30;;
45274;SDS011;31019;43.780;25.948;2023-05-19T00:04:45;92.13;;;82.78;;
45274;SDS011;31019;43.780;25.948;2023-05-19T00:07:16;98.95;;;89.63;;
45274;SDS011;31019;43.780;25.948;2023-05-19T00:09:44;92.90;;;83.75;;
45274;SDS011;31019;43.780;25.948;2023-05-19T00:12:12;86.25;;;77.60;;
45274;SDS011;31019;43.780;25.948;2023-05-19T00:14:40;80.47;;;72.10;;
45274;SDS011;31019;43.780;25.948;2023-05-19T00:17:07;81.95;;;73.72;;
45274;SDS011;31019;43.780;25.948;2023-05-19T00:19:34;86.15;;;77.65;;
45274;SDS011;31019;43.780;25.948;2023-05-19T00:22:03;79.85;;;71.82;;
45274;SDS011;31019;43.780;25.948;2023-05-19T00:24:31;76.15;;;68.32;;
45274;SDS011;31019;43.780;25.948;2023-05-19T00:26:58;89.45;;;80.85;;
45274;SDS011;31019;43.780;25.948;2023-05-19T00:29:25;83.50;;;75.18;;
45274;SDS011;31019;43.780;25.948;2023-05-19T00:31:55;91.97;;;83.32;;
45274;SDS011;31019;43.780;25.948;2023-05-19T00:34:22;83.05;;;75.25;;
45274;SDS011;31019;43.780;25.948;2023-05-19T00:36:48;78.03;;;70.28;;
45274;SDS011;31019;43.780;25.948;2023-05-19T00:39:15;78.22;;;70.10;;
45274;SDS011;31019;43.780;25.948;2023-05-19T00:41:44;94.15;;;85.40;;
45274;SDS011;31019;43.780;25.948;2023-05-19T00:44:10;87.97;;;79.63;;
45274;SDS011;31019;43.780;25.948;2023-05-19T00:46:37;84.47;;;75.88;;
45274;SDS011;31019;43.780;25.948;2023-05-19T00:49:05;79.15;;;71.72;;
45274;SDS011;31019;43.780;25.948;2023-05-19T00:51:32;94.47;;;85.25;;
45274;SDS011;31019;43.780;25.948;2023-05-19T00:53:59;103.00;;;93.65;;
45274;SDS011;31019;43.780;25.948;2023-05-19T00:56:25;82.03;;;73.28;;
45274;SDS011;31019;43.780;25.948;2023-05-19T00:58:54;81.32;;;73.10;;
45274;SDS011;31019;43.780;25.948;2023-05-19T01:01:21;80.63;;;72.82;;
45274;SDS011;31019;43.780;25.948;2023-05-19T01:03:50;82.07;;;74.25;;
45274;SDS011;31019;43.780;25.948;2023-05-19T01:06:17;79.35;;;71.85;;
45274;SDS011;31019;43.780;25.948;2023-05-19T01:08:44;81.82;;;74.07;;
45274;SDS011;31019;43.780;25.948;2023-05-19T01:11:11;82.82;;;74.90;;
45274;SDS011;31019;43.780;25.948;2023-05-19T01:13:38;82.32;;;74.70;;
45274;SDS011;31019;43.780;25.948;2023-05-19T01:16:09;84.50;;;68.85;;
45274;SDS011;31019;43.780;25.948;2023-05-19T01:18:42;69.13;;;62.03;;
45274;SDS011;31019;43.780;25.948;2023-05-19T01:21:25;212.40;;;197.55;;
45274;SDS011;31019;43.780;25.948;2023-05-19T01:24:22;188.50;;;175.45;;
45274;SDS011;31019;43.780;25.948;2023-05-19T01:27:08;187.98;;;173.43;;
45274;SDS011;31019;43.780;25.948;2023-05-19T01:29:53;91.78;;;82.03;;
45274;SDS011;31019;43.780;25.948;2023-05-19T01:32:49;77.70;;;70.18;;
45274;SDS011;31019;43.780;25.948;2023-05-19T01:35:18;102.63;;;91.03;;
45274;SDS011;31019;43.780;25.948;2023-05-19T01:37:48;94.78;;;84.38;;
45274;SDS011;31019;43.780;25.948;2023-05-19T01:40:18;87.03;;;77.93;;
45274;SDS011;31019;43.780;25.948;2023-05-19T01:42:46;95.93;;;85.35;;
45274;SDS011;31019;43.780;25.948;2023-05-19T01:45:14;88.22;;;78.75;;
45274;SDS011;31019;43.780;25.948;2023-05-19T01:47:45;108.93;;;98.88;;
45274;SDS011;31019;43.780;25.948;2023-05-19T01:50:14;82.28;;;73.53;;
45274;SDS011;31019;43.780;25.948;2023-05-19T01:52:41;79.70;;;71.28;;
45274;SDS011;31019;43.780;25.948;2023-05-19T01:55:08;75.85;;;68.18;;
45274;SDS011;31019;43.780;25.948;2023-05-19T01:57:38;73.85;;;66.55;;
45274;SDS011;31019;43.780;25.948;2023-05-19T02:00:13;75.40;;;68.05;;
45274;SDS011;31019;43.780;25.948;2023-05-19T02:02:48;78.50;;;70.57;;
45274;SDS011;31019;43.780;25.948;2023-05-19T02:05:29;72.45;;;65.15;;
45274;SDS011;31019;43.780;25.948;2023-05-19T02:08:01;72.65;;;65.32;;
45274;SDS011;31019;43.780;25.948;2023-05-19T02:10:34;95.88;;;87.53;;
45274;SDS011;31019;43.780;25.948;2023-05-19T02:13:07;90.85;;;83.03;;
45274;SDS011;31019;43.780;25.948;2023-05-19T02:15:39;93.28;;;83.50;;
45274;SDS011;31019;43.780;25.948;2023-05-19T02:18:10;79.65;;;71.78;;
45274;SDS011;31019;43.780;25.948;2023-05-19T02:20:37;86.82;;;79.53;;
45274;SDS011;31019;43.780;25.948;2023-05-19T02:23:04;70.03;;;63.42;;
45274;SDS011;31019;43.780;25.948;2023-05-19T02:25:31;69.07;;;62.35;;
45274;SDS011;31019;43.780;25.948;2023-05-19T02:27:58;75.03;;;67.20;;
45274;SDS011;31019;43.780;25.948;2023-05-19T02:30:25;77.68;;;69.97;;
45274;SDS011;31019;43.780;25.948;2023-05-19T02:32:52;71.82;;;64.68;;
45274;SDS011;31019;43.780;25.948;2023-05-19T02:35:20;74.13;;;66.22;;
45274;SDS011;31019;43.780;25.948;2023-05-19T02:37:47;75.40;;;67.32;;
45274;SDS011;31019;43.780;25.948;2023-05-19T02:40:14;69.93;;;62.65;;
45274;SDS011;31019;43.780;25.948;2023-05-19T02:42:41;73.63;;;63.17;;
45274;SDS011;31019;43.780;25.948;2023-05-19T02:45:08;67.60;;;60.83;;
45274;SDS011;31019;43.780;25.948;2023-05-19T02:47:35;68.47;;;61.90;;
45274;SDS011;31019;43.780;25.948;2023-05-19T02:50:02;64.45;;;58.05;;
45274;SDS011;31019;43.780;25.948;2023-05-19T02:52:31;65.32;;;58.60;;
45274;SDS011;31019;43.780;25.948;2023-05-19T02:54:58;65.13;;;58.33;;
45274;SDS011;31019;43.780;25.948;2023-05-19T02:57:25;63.05;;;56.80;;
45274;SDS011;31019;43.780;25.948;2023-05-19T02:59:52;65.32;;;58.08;;
45274;SDS011;31019;43.780;25.948;2023-05-19T03:02:19;64.18;;;57.53;;
45274;SDS011;31019;43.780;25.948;2023-05-19T03:04:45;63.42;;;57.25;;
45274;SDS011;31019;43.780;25.948;2023-05-19T03:07:12;61.88;;;55.65;;
45274;SDS011;31019;43.780;25.948;2023-05-19T03:09:41;61.63;;;55.55;;
45274;SDS011;31019;43.780;25.948;2023-05-19T03:12:07;62.80;;;56.60;;
45274;SDS011;31019;43.780;25.948;2023-05-19T03:14:35;60.88;;;54.55;;
45274;SDS011;31019;43.780;25.948;2023-05-19T03:17:03;61.85;;;55.85;;
45274;SDS011;31019;43.780;25.948;2023-05-19T03:19:34;60.65;;;54.35;;
45274;SDS011;31019;43.780;25.948;2023-05-19T03:22:01;61.92;;;55.60;;
45274;SDS011;31019;43.780;25.948;2023-05-19T03:24:28;96.30;;;88.95;;
45274;SDS011;31019;43.780;25.948;2023-05-19T03:26:56;83.00;;;76.07;;
45274;SDS011;31019;43.780;25.948;2023-05-19T03:29:23;92.80;;;85.10;;
45274;SDS011;31019;43.780;25.948;2023-05-19T03:31:50;93.97;;;86.30;;
45274;SDS011;31019;43.780;25.948;2023-05-19T03:34:17;98.00;;;89.78;;
45274;SDS011;31019;43.780;25.948;2023-05-19T03:36:44;98.75;;;90.30;;
45274;SDS011;31019;43.780;25.948;2023-05-19T03:39:10;106.88;;;97.97;;
45274;SDS011;31019;43.780;25.948;2023-05-19T03:41:37;108.20;;;98.03;;
45274;SDS011;31019;43.780;25.948;2023-05-19T03:44:05;115.40;;;105.15;;
45274;SDS011;31019;43.780;25.948;2023-05-19T03:46:32;109.75;;;100.38;;
45274;SDS011;31019;43.780;25.948;2023-05-19T03:48:59;114.80;;;104.93;;
45274;SDS011;31019;43.780;25.948;2023-05-19T03:51:26;98.95;;;90.38;;
45274;SDS011;31019;43.780;25.948;2023-05-19T03:53:54;110.32;;;100.85;;
45274;SDS011;31019;43.780;25.948;2023-05-19T03:56:21;115.38;;;105.88;;
45274;SDS011;31019;43.780;25.948;2023-05-19T03:58:50;103.50;;;95.15;;
45274;SDS011;31019;43.780;25.948;2023-05-19T04:01:20;100.18;;;91.88;;
45274;SDS011;31019;43.780;25.948;2023-05-19T04:03:47;97.97;;;89.85;;
45274;SDS011;31019;43.780;25.948;2023-05-19T04:06:13;97.57;;;89.97;;
45274;SDS011;31019;43.780;25.948;2023-05-19T04:08:41;100.45;;;92.53;;
45274;SDS011;31019;43.780;25.948;2023-05-19T04:11:09;96.20;;;87.75;;
45274;SDS011;31019;43.780;25.948;2023-05-19T04:13:36;104.45;;;96.15;;
45274;SDS011;31019;43.780;25.948;2023-05-19T04:16:03;106.18;;;98.22;;
45274;SDS011;31019;43.780;25.948;2023-05-19T04:18:32;111.15;;;102.50;;
45274;SDS011;31019;43.780;25.948;2023-05-19T04:20:59;102.55;;;93.68;;
45274;SDS011;31019;43.780;25.948;2023-05-19T04:23:25;94.72;;;85.85;;
45274;SDS011;31019;43.780;25.948;2023-05-19T04:25:52;100.68;;;92.88;;
45274;SDS011;31019;43.780;25.948;2023-05-19T04:28:21;99.53;;;91.25;;
45274;SDS011;31019;43.780;25.948;2023-05-19T04:30:48;98.75;;;90.20;;
45274;SDS011;31019;43.780;25.948;2023-05-19T04:33:15;93.28;;;85.18;;
45274;SDS011;31019;43.780;25.948;2023-05-19T04:35:45;94.53;;;86.80;;
45274;SDS011;31019;43.780;25.948;2023-05-19T04:38:14;96.20;;;88.07;;
45274;SDS011;31019;43.780;25.948;2023-05-19T04:40:42;98.18;;;90.28;;
45274;SDS011;31019;43.780;25.948;2023-05-19T04:43:09;94.53;;;86.47;;
45274;SDS011;31019;43.780;25.948;2023-05-19T04:45:36;96.82;;;88.63;;
45274;SDS011;31019;43.780;25.948;2023-05-19T04:48:06;99.15;;;90.72;;
45274;SDS011;31019;43.780;25.948;2023-05-19T04:50:33;101.82;;;93.13;;
45274;SDS011;31019;43.780;25.948;2023-05-19T04:53:04;84.47;;;76.53;;
45274;SDS011;31019;43.780;25.948;2023-05-19T04:55:31;90.47;;;82.57;;
45274;SDS011;31019;43.780;25.948;2023-05-19T04:57:58;89.68;;;82.07;;
45274;SDS011;31019;43.780;25.948;2023-05-19T05:00:25;93.80;;;86.00;;
45274;SDS011;31019;43.780;25.948;2023-05-19T05:02:52;96.15;;;87.85;;
45274;SDS011;31019;43.780;25.948;2023-05-19T05:05:21;101.45;;;92.97;;
45274;SDS011;31019;43.780;25.948;2023-05-19T05:07:49;93.40;;;84.88;;
45274;SDS011;31019;43.780;25.948;2023-05-19T05:10:19;96.05;;;87.75;;
45274;SDS011;31019;43.780;25.948;2023-05-19T05:12:46;106.90;;;97.22;;
45274;SDS011;31019;43.780;25.948;2023-05-19T05:15:13;106.93;;;97.32;;
45274;SDS011;31019;43.780;25.948;2023-05-19T05:17:41;94.43;;;86.22;;
45274;SDS011;31019;43.780;25.948;2023-05-19T05:20:09;109.35;;;100.38;;
45274;SDS011;31019;43.780;25.948;2023-05-19T05:22:37;110.53;;;100.85;;
45274;SDS011;31019;43.780;25.948;2023-05-19T05:25:05;108.88;;;99.28;;
45274;SDS011;31019;43.780;25.948;2023-05-19T05:27:34;129.23;;;118.38;;
45274;SDS011;31019;43.780;25.948;2023-05-19T05:30:02;123.65;;;113.47;;
45274;SDS011;31019;43.780;25.948;2023-05-19T05:32:29;117.05;;;107.53;;
45274;SDS011;31019;43.780;25.948;2023-05-19T05:34:56;137.05;;;125.15;;
45274;SDS011;31019;43.780;25.948;2023-05-19T05:37:23;145.20;;;133.82;;
45274;SDS011;31019;43.780;25.948;2023-05-19T05:39:50;144.80;;;133.23;;
45274;SDS011;31019;43.780;25.948;2023-05-19T05:42:16;135.52;;;124.10;;
45274;SDS011;31019;43.780;25.948;2023-05-19T05:44:45;130.65;;;119.88;;
45274;SDS011;31019;43.780;25.948;2023-05-19T05:47:12;141.77;;;130.35;;
45274;SDS011;31019;43.780;25.948;2023-05-19T05:49:40;124.35;;;113.82;;
45274;SDS011;31019;43.780;25.948;2023-05-19T05:52:08;128.57;;;118.38;;
45274;SDS011;31019;43.780;25.948;2023-05-19T05:54:37;110.15;;;101.35;;
45274;SDS011;31019;43.780;25.948;2023-05-19T05:57:04;113.60;;;103.57;;
45274;SDS011;31019;43.780;25.948;2023-05-19T05:59:32;92.80;;;84.85;;
45274;SDS011;31019;43.780;25.948;2023-05-19T06:02:00;85.20;;;77.75;;
45274;SDS011;31019;43.780;25.948;2023-05-19T06:04:27;97.13;;;89.32;;
45274;SDS011;31019;43.780;25.948;2023-05-19T06:06:54;118.07;;;109.00;;
45274;SDS011;31019;43.780;25.948;2023-05-19T06:09:25;95.45;;;87.38;;
45274;SDS011;31019;43.780;25.948;2023-05-19T06:11:52;89.05;;;81.43;;
45274;SDS011;31019;43.780;25.948;2023-05-19T06:14:19;91.90;;;83.78;;
45274;SDS011;31019;43.780;25.948;2023-05-19T06:16:46;93.90;;;85.93;;
45274;SDS011;31019;43.780;25.948;2023-05-19T06:19:14;103.20;;;94.18;;
45274;SDS011;31019;43.780;25.948;2023-05-19T06:21:41;97.75;;;89.90;;
45274;SDS011;31019;43.780;25.948;2023-05-19T06:24:08;97.32;;;88.90;;
45274;SDS011;31019;43.780;25.948;2023-05-19T06:26:35;84.68;;;77.45;;
45274;SDS011;31019;43.780;25.948;2023-05-19T06:29:02;63.22;;;57.42;;
45274;SDS011;31019;43.780;25.948;2023-05-19T06:31:29;80.30;;;73.18;;
45274;SDS011;31019;43.780;25.948;2023-05-19T06:33:57;83.65;;;76.47;;
45274;SDS011;31019;43.780;25.948;2023-05-19T06:36:25;94.68;;;86.68;;
45274;SDS011;31019;43.780;25.948;2023-05-19T06:38:52;94.05;;;86.32;;
45274;SDS011;31019;43.780;25.948;2023-05-19T06:41:19;84.32;;;76.85;;
45274;SDS011;31019;43.780;25.948;2023-05-19T06:43:46;62.30;;;57.00;;
45274;SDS011;31019;43.780;25.948;2023-05-19T06:46:12;71.15;;;65.00;;
45274;SDS011;31019;43.780;25.948;2023-05-19T06:48:41;90.80;;;83.22;;
45274;SDS011;31019;43.780;25.948;2023-05-19T06:51:08;62.25;;;55.97;;
45274;SDS011;31019;43.780;25.948;2023-05-19T06:53:36;54.55;;;49.00;;
45274;SDS011;31019;43.780;25.948;2023-05-19T06:56:03;62.67;;;56.88;;
45274;SDS011;31019;43.780;25.948;2023-05-19T06:58:31;59.88;;;53.85;;
45274;SDS011;31019;43.780;25.948;2023-05-19T07:00:58;69.70;;;63.30;;
45274;SDS011;31019;43.780;25.948;2023-05-19T07:03:25;62.80;;;55.95;;
45274;SDS011;31019;43.780;25.948;2023-05-19T07:05:51;62.00;;;55.90;;
45274;SDS011;31019;43.780;25.948;2023-05-19T07:08:18;59.80;;;53.63;;
45274;SDS011;31019;43.780;25.948;2023-05-19T07:10:46;62.90;;;54.08;;
45274;SDS011;31019;43.780;25.948;2023-05-19T07:13:13;109.15;;;99.82;;
45274;SDS011;31019;43.780;25.948;2023-05-19T07:15:40;82.35;;;74.97;;
45274;SDS011;31019;43.780;25.948;2023-05-19T07:18:07;59.17;;;53.17;;
45274;SDS011;31019;43.780;25.948;2023-05-19T07:20:34;50.20;;;45.03;;
45274;SDS011;31019;43.780;25.948;2023-05-19T07:23:01;53.80;;;48.13;;
45274;SDS011;31019;43.780;25.948;2023-05-19T07:25:29;48.05;;;42.97;;
45274;SDS011;31019;43.780;25.948;2023-05-19T07:27:58;56.35;;;50.75;;
45274;SDS011;31019;43.780;25.948;2023-05-19T07:30:26;54.53;;;49.22;;
45274;SDS011;31019;43.780;25.948;2023-05-19T07:32:53;49.25;;;43.60;;
45274;SDS011;31019;43.780;25.948;2023-05-19T07:35:20;52.30;;;46.85;;
45274;SDS011;31019;43.780;25.948;2023-05-19T07:37:50;48.17;;;43.00;;
45274;SDS011;31019;43.780;25.948;2023-05-19T07:40:17;48.97;;;43.67;;
45274;SDS011;31019;43.780;25.948;2023-05-19T07:42:44;45.08;;;40.42;;
45274;SDS011;31019;43.780;25.948;2023-05-19T07:45:12;48.75;;;43.90;;
45274;SDS011;31019;43.780;25.948;2023-05-19T07:47:39;49.88;;;44.90;;
45274;SDS011;31019;43.780;25.948;2023-05-19T07:50:06;60.78;;;46.05;;
45274;SDS011;31019;43.780;25.948;2023-05-19T07:52:33;49.45;;;45.13;;
45274;SDS011;31019;43.780;25.948;2023-05-19T07:55:00;48.00;;;42.70;;
45274;SDS011;31019;43.780;25.948;2023-05-19T07:57:27;52.78;;;47.10;;
45274;SDS011;31019;43.780;25.948;2023-05-19T07:59:54;48.80;;;43.97;;
45274;SDS011;31019;43.780;25.948;2023-05-19T08:02:22;55.00;;;50.05;;
45274;SDS011;31019;43.780;25.948;2023-05-19T08:04:49;51.30;;;46.35;;
45274;SDS011;31019;43.780;25.948;2023-05-19T08:07:17;54.75;;;49.10;;
45274;SDS011;31019;43.780;25.948;2023-05-19T08:09:44;48.38;;;43.42;;
45274;SDS011;31019;43.780;25.948;2023-05-19T08:12:12;48.03;;;43.13;;
45274;SDS011;31019;43.780;25.948;2023-05-19T08:14:38;47.00;;;42.40;;
45274;SDS011;31019;43.780;25.948;2023-05-19T08:17:05;38.80;;;34.63;;
45274;SDS011;31019;43.780;25.948;2023-05-19T08:19:33;49.35;;;44.17;;
45274;SDS011;31019;43.780;25.948;2023-05-19T08:22:00;42.95;;;38.70;;
45274;SDS011;31019;43.780;25.948;2023-05-19T08:24:27;49.95;;;45.03;;
45274;SDS011;31019;43.780;25.948;2023-05-19T08:26:54;50.05;;;45.08;;
45274;SDS011;31019;43.780;25.948;2023-05-19T08:29:21;41.38;;;37.65;;
45274;SDS011;31019;43.780;25.948;2023-05-19T08:31:48;46.70;;;42.40;;
45274;SDS011;31019;43.780;25.948;2023-05-19T08:34:16;38.25;;;34.67;;
45274;SDS011;31019;43.780;25.948;2023-05-19T08:36:45;45.80;;;41.45;;
45274;SDS011;31019;43.780;25.948;2023-05-19T08:39:11;44.83;;;40.63;;
45274;SDS011;31019;43.780;25.948;2023-05-19T08:41:40;43.95;;;40.13;;
45274;SDS011;31019;43.780;25.948;2023-05-19T08:44:07;38.20;;;34.10;;
45274;SDS011;31019;43.780;25.948;2023-05-19T08:46:34;40.47;;;36.47;;
45274;SDS011;31019;43.780;25.948;2023-05-19T08:49:03;37.45;;;33.97;;
45274;SDS011;31019;43.780;25.948;2023-05-19T08:51:35;41.35;;;37.28;;
45274;SDS011;31019;43.780;25.948;2023-05-19T08:54:11;40.08;;;36.13;;
45274;SDS011;31019;43.780;25.948;2023-05-19T08:56:41;38.50;;;34.85;;
45274;SDS011;31019;43.780;25.948;2023-05-19T08:59:09;50.95;;;44.22;;
45274;SDS011;31019;43.780;25.948;2023-05-19T09:01:37;38.67;;;34.78;;
45274;SDS011;31019;43.780;25.948;2023-05-19T09:04:05;42.40;;;38.00;;
45274;SDS011;31019;43.780;25.948;2023-05-19T09:06:32;44.63;;;40.15;;
45274;SDS011;31019;43.780;25.948;2023-05-19T09:08:59;39.20;;;34.47;;
45274;SDS011;31019;43.780;25.948;2023-05-19T09:11:27;40.13;;;35.95;;
45274;SDS011;31019;43.780;25.948;2023-05-19T09:13:54;38.10;;;34.38;;
45274;SDS011;31019;43.780;25.948;2023-05-19T09:16:21;44.42;;;40.03;;
45274;SDS011;31019;43.780;25.948;2023-05-19T09:18:54;36.67;;;32.97;;
45274;SDS011;31019;43.780;25.948;2023-05-19T09:21:26;33.45;;;30.13;;
45274;SDS011;31019;43.780;25.948;2023-05-19T09:26:21;36.72;;;33.10;;
45274;SDS011;31019;43.780;25.948;2023-05-19T09:28:49;36.58;;;33.03;;
45274;SDS011;31019;43.780;25.948;2023-05-19T09:31:16;36.65;;;32.42;;
45274;SDS011;31019;43.780;25.948;2023-05-19T09:33:43;35.55;;;31.88;;
45274;SDS011;31019;43.780;25.948;2023-05-19T09:36:10;37.55;;;33.88;;
45274;SDS011;31019;43.780;25.948;2023-05-19T09:38:37;37.45;;;32.25;;
45274;SDS011;31019;43.780;25.948;2023-05-19T09:41:05;33.22;;;30.02;;
45274;SDS011;31019;43.780;25.948;2023-05-19T09:43:33;36.75;;;33.25;;
45274;SDS011;31019;43.780;25.948;2023-05-19T09:46:04;32.80;;;29.67;;
45274;SDS011;31019;43.780;25.948;2023-05-19T09:48:31;33.60;;;30.02;;
45274;SDS011;31019;43.780;25.948;2023-05-19T09:50:59;35.97;;;31.85;;
45274;SDS011;31019;43.780;25.948;2023-05-19T09:53:26;34.85;;;29.85;;
45274;SDS011;31019;43.780;25.948;2023-05-19T09:55:55;33.17;;;29.75;;
45274;SDS011;31019;43.780;25.948;2023-05-19T09:58:23;33.38;;;30.30;;
45274;SDS011;31019;43.780;25.948;2023-05-19T10:00:50;30.15;;;27.15;;
45274;SDS011;31019;43.780;25.948;2023-05-19T10:03:20;28.92;;;26.17;;
45274;SDS011;31019;43.780;25.948;2023-05-19T10:05:48;35.13;;;32.00;;
45274;SDS011;31019;43.780;25.948;2023-05-19T10:08:18;34.53;;;31.45;;
45274;SDS011;31019;43.780;25.948;2023-05-19T10:10:45;34.53;;;30.95;;
45274;SDS011;31019;43.780;25.948;2023-05-19T10:13:13;31.13;;;28.20;;
45274;SDS011;31019;43.780;25.948;2023-05-19T10:15:41;33.45;;;30.25;;
45274;SDS011;31019;43.780;25.948;2023-05-19T10:18:09;33.13;;;30.02;;
45274;SDS011;31019;43.780;25.948;2023-05-19T10:20:38;39.97;;;32.00;;
45274;SDS011;31019;43.780;25.948;2023-05-19T10:23:06;33.53;;;29.92;;
45274;SDS011;31019;43.780;25.948;2023-05-19T10:25:33;34.65;;;30.25;;
45274;SDS011;31019;43.780;25.948;2023-05-19T10:28:02;33.35;;;30.13;;
45274;SDS011;31019;43.780;25.948;2023-05-19T10:30:34;30.15;;;27.25;;
45274;SDS011;31019;43.780;25.948;2023-05-19T10:33:05;32.97;;;29.83;;
45274;SDS011;31019;43.780;25.948;2023-05-19T10:35:56;35.38;;;31.88;;
45274;SDS011;31019;43.780;25.948;2023-05-19T10:38:35;33.25;;;29.95;;
45274;SDS011;31019;43.780;25.948;2023-05-19T10:41:10;34.47;;;30.63;;
45274;SDS011;31019;43.780;25.948;2023-05-19T10:43:47;33.90;;;30.38;;
45274;SDS011;31019;43.780;25.948;2023-05-19T10:46:25;33.38;;;27.85;;
45274;SDS011;31019;43.780;25.948;2023-05-19T10:48:52;32.05;;;28.98;;
45274;SDS011;31019;43.780;25.948;2023-05-19T10:51:21;30.63;;;27.90;;
45274;SDS011;31019;43.780;25.948;2023-05-19T10:53:55;31.75;;;28.80;;
45274;SDS011;31019;43.780;25.948;2023-05-19T10:56:26;29.65;;;26.60;;
45274;SDS011;31019;43.780;25.948;2023-05-19T10:58:55;30.35;;;27.25;;
45274;SDS011;31019;43.780;25.948;2023-05-19T11:01:22;31.25;;;28.23;;
45274;SDS011;31019;43.780;25.948;2023-05-19T11:03:56;31.17;;;27.98;;
45274;SDS011;31019;43.780;25.948;2023-05-19T11:06:28;34.08;;;27.05;;
45274;SDS011;31019;43.780;25.948;2023-05-19T11:08:57;33.05;;;27.95;;
45274;SDS011;31019;43.780;25.948;2023-05-19T11:11:26;31.25;;;28.02;;
45274;SDS011;31019;43.780;25.948;2023-05-19T11:14:09;30.70;;;27.75;;
45274;SDS011;31019;43.780;25.948;2023-05-19T11:16:38;30.42;;;27.67;;
45274;SDS011;31019;43.780;25.948;2023-05-19T11:19:07;33.90;;;30.25;;
45274;SDS011;31019;43.780;25.948;2023-05-19T11:21:47;34.25;;;31.05;;
45274;SDS011;31019;43.780;25.948;2023-05-19T11:24:32;28.88;;;26.17;;
45274;SDS011;31019;43.780;25.948;2023-05-19T11:26:59;28.95;;;26.35;;
45274;SDS011;31019;43.780;25.948;2023-05-19T11:29:43;28.45;;;25.50;;
45274;SDS011;31019;43.780;25.948;2023-05-19T11:32:10;28.20;;;25.63;;
45274;SDS011;31019;43.780;25.948;2023-05-19T11:34:39;31.70;;;28.80;;
45274;SDS011;31019;43.780;25.948;2023-05-19T11:37:07;30.13;;;27.17;;
45274;SDS011;31019;43.780;25.948;2023-05-19T11:39:34;32.42;;;29.13;;
45274;SDS011;31019;43.780;25.948;2023-05-19T11:42:02;31.05;;;28.10;;
45274;SDS011;31019;43.780;25.948;2023-05-19T11:44:29;27.58;;;25.00;;
45274;SDS011;31019;43.780;25.948;2023-05-19T11:46:57;26.85;;;24.45;;
45274;SDS011;31019;43.780;25.948;2023-05-19T11:49:26;30.45;;;27.98;;
45274;SDS011;31019;43.780;25.948;2023-05-19T11:51:53;27.30;;;24.50;;
45274;SDS011;31019;43.780;25.948;2023-05-19T11:54:27;31.15;;;28.42;;
45274;SDS011;31019;43.780;25.948;2023-05-19T11:56:55;30.83;;;28.23;;
45274;SDS011;31019;43.780;25.948;2023-05-19T11:59:28;29.00;;;26.52;;
45274;SDS011;31019;43.780;25.948;2023-05-19T12:01:56;30.30;;;27.95;;
45274;SDS011;31019;43.780;25.948;2023-05-19T12:04:23;31.10;;;28.35;;
45274;SDS011;31019;43.780;25.948;2023-05-19T12:06:50;34.38;;;30.67;;
45274;SDS011;31019;43.780;25.948;2023-05-19T12:09:18;26.83;;;24.48;;
45274;SDS011;31019;43.780;25.948;2023-05-19T12:11:49;29.60;;;27.10;;
45274;SDS011;31019;43.780;25.948;2023-05-19T12:14:16;31.45;;;28.33;;
45274;SDS011;31019;43.780;25.948;2023-05-19T12:16:43;30.73;;;28.30;;
45274;SDS011;31019;43.780;25.948;2023-05-19T12:19:10;28.88;;;26.65;;
45274;SDS011;31019;43.780;25.948;2023-05-19T12:21:37;29.45;;;26.90;;
45274;SDS011;31019;43.780;25.948;2023-05-19T12:24:04;29.58;;;27.02;;
45274;SDS011;31019;43.780;25.948;2023-05-19T12:26:32;30.70;;;28.13;;
45274;SDS011;31019;43.780;25.948;2023-05-19T12:29:01;29.17;;;26.77;;
45274;SDS011;31019;43.780;25.948;2023-05-19T12:31:30;29.17;;;26.60;;
45274;SDS011;31019;43.780;25.948;2023-05-19T12:33:58;29.27;;;26.88;;
45274;SDS011;31019;43.780;25.948;2023-05-19T12:36:25;32.92;;;30.45;;
45274;SDS011;31019;43.780;25.948;2023-05-19T12:38:53;41.63;;;38.72;;
45274;SDS011;31019;43.780;25.948;2023-05-19T12:41:20;44.20;;;40.80;;
45274;SDS011;31019;43.780;25.948;2023-05-19T12:43:47;40.72;;;37.33;;
45274;SDS011;31019;43.780;25.948;2023-05-19T12:46:17;37.53;;;34.40;;
45274;SDS011;31019;43.780;25.948;2023-05-19T12:48:44;41.05;;;37.85;;
45274;SDS011;31019;43.780;25.948;2023-05-19T12:51:15;41.35;;;38.15;;
45274;SDS011;31019;43.780;25.948;2023-05-19T12:53:45;37.22;;;34.53;;
45274;SDS011;31019;43.780;25.948;2023-05-19T12:56:12;34.90;;;32.33;;
45274;SDS011;31019;43.780;25.948;2023-05-19T12:58:41;37.45;;;34.67;;
45274;SDS011;31019;43.780;25.948;2023-05-19T13:01:14;36.00;;;32.75;;
45274;SDS011;31019;43.780;25.948;2023-05-19T13:03:42;34.30;;;31.40;;
45274;SDS011;31019;43.780;25.948;2023-05-19T13:06:09;30.02;;;27.55;;
45274;SDS011;31019;43.780;25.948;2023-05-19T13:08:37;28.08;;;25.58;;
45274;SDS011;31019;43.780;25.948;2023-05-19T13:11:04;29.23;;;26.77;;
45274;SDS011;31019;43.780;25.948;2023-05-19T13:13:31;31.60;;;29.17;;
45274;SDS011;31019;43.780;25.948;2023-05-19T13:15:58;29.45;;;27.20;;
45274;SDS011;31019;43.780;25.948;2023-05-19T13:18:26;33.50;;;31.00;;
45274;SDS011;31019;43.780;25.948;2023-05-19T13:20:56;33.58;;;31.02;;
45274;SDS011;31019;43.780;25.948;2023-05-19T13:23:23;31.58;;;29.38;;
45274;SDS011;31019;43.780;25.948;2023-05-19T13:25:50;33.65;;;30.90;;
45274;SDS011;31019;43.780;25.948;2023-05-19T13:28:17;36.42;;;33.83;;
45274;SDS011;31019;43.780;25.948;2023-05-19T13:30:43;40.47;;;37.35;;
45274;SDS011;31019;43.780;25.948;2023-05-19T13:33:10;42.53;;;39.53;;
45274;SDS011;31019;43.780;25.948;2023-05-19T13:35:39;39.42;;;36.30;;
45274;SDS011;31019;43.780;25.948;2023-05-19T13:38:06;35.65;;;32.28;;
45274;SDS011;31019;43.780;25.948;2023-05-19T13:40:34;38.40;;;35.55;;
45274;SDS011;31019;43.780;25.948;2023-05-19T13:43:01;33.22;;;30.73;;
45274;SDS011;31019;43.780;25.948;2023-05-19T13:45:29;35.03;;;32.08;;
45274;SDS011;31019;43.780;25.948;2023-05-19T13:47:56;32.85;;;30.42;;
45274;SDS011;31019;43.780;25.948;2023-05-19T13:50:23;32.38;;;30.17;;
45274;SDS011;31019;43.780;25.948;2023-05-19T13:52:51;37.03;;;34.53;;
45274;SDS011;31019;43.780;25.948;2023-05-19T13:55:18;33.95;;;31.45;;
45274;SDS011;31019;43.780;25.948;2023-05-19T13:57:45;33.50;;;30.83;;
45274;SDS011;31019;43.780;25.948;2023-05-19T14:00:12;32.58;;;29.88;;
45274;SDS011;31019;43.780;25.948;2023-05-19T14:02:39;31.42;;;28.92;;
45274;SDS011;31019;43.780;25.948;2023-05-19T14:05:07;29.98;;;27.33;;
45274;SDS011;31019;43.780;25.948;2023-05-19T14:07:34;35.58;;;32.72;;
45274;SDS011;31019;43.780;25.948;2023-05-19T14:10:02;29.20;;;26.85;;
45274;SDS011;31019;43.780;25.948;2023-05-19T14:12:30;29.67;;;27.27;;
45274;SDS011;31019;43.780;25.948;2023-05-19T14:14:57;31.23;;;28.65;;
45274;SDS011;31019;43.780;25.948;2023-05-19T14:17:25;32.67;;;29.88;;